createdAt,value
2022-08-03T00:00:32.058Z,24.13
2022-08-03T00:03:34.812Z,24.04
2022-08-03T00:06:37.899Z,24.13
2022-08-03T00:09:40.473Z,24.10
2022-08-03T00:12:42.725Z,23.99
2022-08-03T00:15:45.445Z,23.97
2022-08-03T00:18:47.714Z,23.92
2022-08-03T00:21:50.533Z,23.90
2022-08-03T00:24:52.788Z,24.00
2022-08-03T00:27:55.396Z,23.84
2022-08-03T00:30:58.344Z,23.83
2022-08-03T00:34:03.465Z,23.91
2022-08-03T00:37:05.904Z,23.88
2022-08-03T00:40:13.629Z,23.76
2022-08-03T00:43:15.983Z,23.82
2022-08-03T00:46:21.765Z,23.82
2022-08-03T00:49:24.876Z,23.66
2022-08-03T00:52:30.038Z,23.64
2022-08-03T00:55:32.519Z,23.71
2022-08-03T00:58:35.307Z,23.61
2022-08-03T01:01:37.690Z,23.52
2022-08-03T01:04:40.270Z,23.59
2022-08-03T01:08:03.479Z,23.57
2022-08-03T01:11:16.584Z,23.55
2022-08-03T01:14:31.069Z,23.54
2022-08-03T01:18:03.379Z,23.46
2022-08-03T01:21:12.569Z,23.53
2022-08-03T01:24:54.651Z,23.43
2022-08-03T01:28:03.654Z,23.53
2022-08-03T01:31:08.619Z,23.51
2022-08-03T01:34:14.734Z,23.39
2022-08-03T01:37:24.608Z,23.35
2022-08-03T01:40:28.441Z,23.45
2022-08-03T01:44:28.397Z,23.33
2022-08-03T01:46:54.353Z,23.32
2022-08-03T01:49:58.034Z,23.39
2022-08-03T01:53:01.478Z,23.29
2022-08-03T01:56:06.433Z,23.37
2022-08-03T01:59:10.668Z,23.24
2022-08-03T02:02:33.237Z,23.23
2022-08-03T02:05:39.435Z,23.21
2022-08-03T02:08:44.888Z,23.29
2022-08-03T02:11:48.549Z,23.27
2022-08-03T02:14:52.093Z,23.23
2022-08-03T02:17:57.593Z,23.20
2022-08-03T02:21:10.964Z,23.17
2022-08-03T02:24:14.127Z,23.11
2022-08-03T02:27:24.327Z,23.10
2022-08-03T02:30:39.145Z,23.09
2022-08-03T02:33:50.624Z,23.07
2022-08-03T02:36:54.260Z,23.06
2022-08-03T02:40:03.872Z,22.95
2022-08-03T02:43:12.190Z,22.90
2022-08-03T02:46:19.838Z,22.83
2022-08-03T02:49:49.446Z,22.90
2022-08-03T02:52:48.865Z,22.87
2022-08-03T02:55:53.097Z,22.76
2022-08-03T02:58:58.384Z,22.82
2022-08-03T03:02:02.300Z,22.72
2022-08-03T03:05:55.894Z,22.65
2022-08-03T03:08:29.301Z,22.67
2022-08-03T03:11:31.810Z,22.64
2022-08-03T03:14:35.097Z,22.74
2022-08-03T03:17:37.655Z,22.73
2022-08-03T03:20:41.255Z,22.60
2022-08-03T03:23:44.006Z,22.57
2022-08-03T03:26:48.762Z,22.61
2022-08-03T03:29:51.242Z,22.58
2022-08-03T03:32:54.565Z,22.57
2022-08-03T03:35:58.556Z,22.54
2022-08-03T03:39:15.522Z,22.48
2022-08-03T03:42:18.435Z,22.43
2022-08-03T03:45:21.965Z,22.32
2022-08-03T03:48:25.227Z,22.40
2022-08-03T03:51:27.639Z,22.38
2022-08-03T03:54:42.867Z,22.38
2022-08-03T03:57:45.626Z,22.25
2022-08-03T04:00:48.058Z,22.39
2022-08-03T04:03:50.649Z,22.34
2022-08-03T04:07:11.345Z,22.32
2022-08-03T04:10:41.489Z,22.25
2022-08-03T04:13:55.323Z,22.39
2022-08-03T04:17:13.146Z,22.39
2022-08-03T04:20:20.220Z,22.45
2022-08-03T04:23:38.157Z,22.48
2022-08-03T04:26:43.286Z,22.50
2022-08-03T04:29:59.663Z,22.56
2022-08-03T04:33:03.642Z,22.60
2022-08-03T04:36:11.016Z,22.63
2022-08-03T04:39:38.947Z,22.61
2022-08-03T04:42:44.803Z,22.63
2022-08-03T04:45:49.600Z,22.61
2022-08-03T04:48:52.735Z,22.54
2022-08-03T04:51:55.190Z,22.67
2022-08-03T04:54:57.845Z,22.69
2022-08-03T04:58:01.648Z,22.64
2022-08-03T05:01:04.218Z,22.70
2022-08-03T05:04:06.583Z,22.74
2022-08-03T05:07:12.303Z,22.86
2022-08-03T05:10:16.488Z,22.93
2022-08-03T05:13:19.386Z,22.98
2022-08-03T05:16:21.735Z,23.01
2022-08-03T05:19:24.618Z,23.04
2022-08-03T05:22:27.209Z,23.00
2022-08-03T05:25:31.953Z,23.10
2022-08-03T05:28:34.390Z,23.11
2022-08-03T05:31:37.088Z,23.15
2022-08-03T05:34:39.718Z,23.22
2022-08-03T05:37:42.586Z,23.20
2022-08-03T05:41:21.658Z,23.35
2022-08-03T05:44:20.732Z,23.31
2022-08-03T05:47:23.177Z,23.53
2022-08-03T05:50:25.762Z,23.60
2022-08-03T05:53:28.056Z,23.57
2022-08-03T05:56:30.716Z,23.68
2022-08-03T05:59:38.485Z,23.78
2022-08-03T06:02:43.040Z,23.90
2022-08-03T06:05:55.531Z,23.98
2022-08-03T06:09:02.783Z,24.05
2022-08-03T06:12:05.664Z,24.06
2022-08-03T06:15:11.513Z,24.28
2022-08-03T06:18:14.405Z,24.37
2022-08-03T06:21:16.770Z,24.41
2022-08-03T06:24:19.431Z,24.61
2022-08-03T06:27:36.697Z,24.79
2022-08-03T06:30:41.495Z,24.88
2022-08-03T06:34:29.099Z,25.07
2022-08-03T06:37:06.553Z,25.22
2022-08-03T06:40:10.176Z,25.31
2022-08-03T06:43:16.528Z,25.39
2022-08-03T06:46:19.414Z,25.68
2022-08-03T06:49:22.042Z,25.75
2022-08-03T06:52:38.340Z,26.02
2022-08-03T06:55:42.420Z,26.24
2022-08-03T06:58:45.091Z,26.47
2022-08-03T07:01:49.725Z,26.72
2022-08-03T07:04:52.172Z,26.87
2022-08-03T07:07:56.750Z,26.91
2022-08-03T07:10:59.196Z,27.12
2022-08-03T07:14:01.813Z,27.39
2022-08-03T07:17:12.024Z,27.51
2022-08-03T07:20:18.394Z,27.68
2022-08-03T07:23:23.072Z,27.90
2022-08-03T07:26:25.731Z,28.25
2022-08-03T07:29:28.139Z,28.39
2022-08-03T07:32:31.686Z,28.41
2022-08-03T07:35:34.207Z,28.42
2022-08-03T07:38:37.272Z,28.72
2022-08-03T07:41:39.654Z,28.81
2022-08-03T07:44:44.658Z,29.02
2022-08-03T07:47:53.245Z,29.26
2022-08-03T07:50:56.324Z,29.66
2022-08-03T07:53:59.108Z,29.78
2022-08-03T07:57:01.623Z,30.12
2022-08-03T08:00:09.125Z,30.47
2022-08-03T08:03:14.150Z,30.67
2022-08-03T08:06:18.317Z,30.65
2022-08-03T08:09:20.581Z,30.83
2022-08-03T08:12:23.130Z,31.10
2022-08-03T08:15:25.655Z,31.52
2022-08-03T08:18:33.613Z,31.76
2022-08-03T08:21:53.791Z,32.18
2022-08-03T08:25:01.657Z,32.17
2022-08-03T08:28:31.806Z,32.36
2022-08-03T08:31:27.285Z,32.58
2022-08-03T08:34:29.661Z,32.90
2022-08-03T08:37:35.480Z,33.19
2022-08-03T08:40:37.603Z,33.71
2022-08-03T08:43:41.070Z,32.80
2022-08-03T08:46:44.145Z,32.24
2022-08-03T08:50:04.043Z,32.85
2022-08-03T08:53:17.631Z,33.43
2022-08-03T08:56:26.712Z,34.12
2022-08-03T08:59:48.931Z,34.13
2022-08-03T09:02:52.861Z,34.12
2022-08-03T09:05:56.420Z,34.76
2022-08-03T09:08:59.203Z,35.28
2022-08-03T09:12:28.128Z,35.60
2022-08-03T09:15:32.389Z,35.86
2022-08-03T09:18:34.636Z,36.29
2022-08-03T09:21:37.203Z,36.74
2022-08-03T09:25:21.545Z,37.01
2022-08-03T09:28:57.226Z,37.37
2022-08-03T09:31:43.612Z,37.76
2022-08-03T09:34:47.595Z,37.87
2022-08-03T09:38:13.932Z,38.03
2022-08-03T09:41:20.174Z,38.33
2022-08-03T09:44:35.861Z,38.37
2022-08-03T09:47:44.629Z,38.24
2022-08-03T09:50:57.063Z,38.82
2022-08-03T09:54:32.677Z,39.22
2022-08-03T09:57:35.320Z,38.70
2022-08-03T10:00:55.819Z,38.46
2022-08-03T10:04:04.053Z,39.01
2022-08-03T10:07:07.031Z,39.35
2022-08-03T10:10:30.030Z,39.00
2022-08-03T10:13:33.838Z,39.36
2022-08-03T10:16:38.824Z,39.74
2022-08-03T10:19:41.632Z,39.89
2022-08-03T10:22:44.476Z,40.33
2022-08-03T10:25:53.174Z,40.30
2022-08-03T10:28:59.712Z,40.63
2022-08-03T10:32:09.392Z,40.35
2022-08-03T10:35:19.865Z,40.16
2022-08-03T10:38:37.415Z,39.60
2022-08-03T10:41:42.616Z,37.46
2022-08-03T10:44:44.886Z,35.82
2022-08-03T10:47:52.188Z,35.73
2022-08-03T10:50:54.920Z,36.05
2022-08-03T10:53:59.036Z,36.49
2022-08-03T10:57:22.675Z,37.26
2022-08-03T11:00:27.638Z,37.94
2022-08-03T11:03:30.020Z,38.76
2022-08-03T11:06:37.290Z,38.38
2022-08-03T11:09:47.508Z,38.28
2022-08-03T11:12:50.277Z,37.64
2022-08-03T11:15:59.805Z,36.99
2022-08-03T11:19:09.856Z,36.37
2022-08-03T11:22:13.887Z,35.62
2022-08-03T11:25:54.076Z,35.13
2022-08-03T11:28:40.148Z,34.56
2022-08-03T11:31:50.547Z,34.11
2022-08-03T11:35:12.413Z,33.84
2022-08-03T11:38:15.394Z,33.55
2022-08-03T11:41:44.871Z,33.42
2022-08-03T11:44:49.048Z,34.00
2022-08-03T11:47:54.863Z,34.33
2022-08-03T11:50:57.465Z,35.25
2022-08-03T11:54:02.780Z,35.71
2022-08-03T11:57:05.494Z,36.13
2022-08-03T12:00:33.993Z,36.46
2022-08-03T12:03:36.604Z,35.60
2022-08-03T12:06:56.395Z,35.00
2022-08-03T12:10:06.584Z,35.25
2022-08-03T12:14:36.660Z,36.10
2022-08-03T12:16:34.860Z,36.36
2022-08-03T12:19:43.921Z,36.68
2022-08-03T12:22:46.453Z,37.01
2022-08-03T12:25:50.930Z,37.17
2022-08-03T12:28:53.531Z,36.79
2022-08-03T12:31:56.439Z,36.49
2022-08-03T12:35:01.639Z,36.73
2022-08-03T12:38:04.513Z,36.99
2022-08-03T12:41:13.677Z,37.29
2022-08-03T12:44:16.039Z,37.50
2022-08-03T12:47:18.776Z,37.43
2022-08-03T12:50:31.506Z,37.25
2022-08-03T12:53:37.407Z,36.75
2022-08-03T12:57:10.788Z,36.41
2022-08-03T13:00:28.849Z,36.18
2022-08-03T13:03:43.627Z,36.39
2022-08-03T13:07:03.891Z,36.51
2022-08-03T13:10:08.304Z,36.24
2022-08-03T13:13:11.080Z,36.29
2022-08-03T13:16:18.751Z,36.31
2022-08-03T13:19:21.847Z,36.47
2022-08-03T13:22:27.312Z,36.64
2022-08-03T13:25:29.986Z,36.60
2022-08-03T13:28:32.229Z,36.67
2022-08-03T13:31:34.710Z,36.68
2022-08-03T13:34:38.069Z,36.48
2022-08-03T13:37:40.668Z,36.45
2022-08-03T13:40:42.967Z,36.38
2022-08-03T13:43:50.023Z,36.36
2022-08-03T13:47:02.685Z,36.36
2022-08-03T13:50:05.509Z,35.65
2022-08-03T13:53:07.669Z,35.57
2022-08-03T13:56:10.126Z,35.76
2022-08-03T13:59:12.405Z,35.62
2022-08-03T14:02:15.070Z,35.60
2022-08-03T14:05:17.788Z,35.52
2022-08-03T14:08:20.036Z,35.61
2022-08-03T14:11:22.614Z,35.66
2022-08-03T14:14:26.049Z,35.03
2022-08-03T14:17:42.097Z,35.10
2022-08-03T14:20:54.341Z,35.25
2022-08-03T14:23:58.689Z,35.16
2022-08-03T14:27:09.066Z,35.35
2022-08-03T14:30:12.693Z,35.38
2022-08-03T14:33:15.100Z,35.20
2022-08-03T14:36:17.603Z,35.30
2022-08-03T14:39:19.860Z,35.34
2022-08-03T14:42:22.487Z,35.19
2022-08-03T14:45:24.770Z,35.07
2022-08-03T14:50:31.972Z,34.94
2022-08-03T14:51:53.254Z,34.79
2022-08-03T14:54:56.410Z,34.73
2022-08-03T14:57:59.991Z,34.78
2022-08-03T15:01:02.770Z,34.60
2022-08-03T15:04:25.140Z,34.56
2022-08-03T15:07:27.644Z,34.59
2022-08-03T15:10:43.902Z,34.47
2022-08-03T15:13:47.548Z,33.96
2022-08-03T15:16:49.825Z,33.77
2022-08-03T15:20:01.297Z,33.74
2022-08-03T15:23:07.996Z,33.66
2022-08-03T15:26:30.609Z,33.36
2022-08-03T15:30:05.795Z,33.54
2022-08-03T15:32:55.386Z,33.48
2022-08-03T15:36:00.026Z,33.55
2022-08-03T15:39:02.679Z,33.50
2022-08-03T15:42:05.210Z,33.45
2022-08-03T15:45:08.529Z,33.25
2022-08-03T15:48:10.764Z,33.24
2022-08-03T15:51:13.368Z,33.09
2022-08-03T15:54:15.699Z,33.07
2022-08-03T15:57:18.621Z,33.00
2022-08-03T16:00:21.186Z,32.92
2022-08-03T16:03:36.536Z,32.86
2022-08-03T16:06:38.835Z,32.81
2022-08-03T16:09:43.896Z,32.72
2022-08-03T16:12:47.788Z,32.40
2022-08-03T16:15:50.725Z,32.28
2022-08-03T16:18:53.540Z,32.19
2022-08-03T16:21:56.087Z,32.10
2022-08-03T16:24:59.671Z,32.09
2022-08-03T16:28:07.896Z,31.94
2022-08-03T16:31:14.904Z,31.99
2022-08-03T16:34:17.379Z,31.85
2022-08-03T16:37:38.524Z,31.86
2022-08-03T16:40:41.981Z,31.78
2022-08-03T16:43:44.266Z,31.75
2022-08-03T16:46:46.836Z,31.60
2022-08-03T16:49:54.528Z,31.60
2022-08-03T16:52:58.317Z,31.49
2022-08-03T16:56:00.723Z,31.32
2022-08-03T16:59:04.397Z,31.37
2022-08-03T17:02:12.702Z,31.20
2022-08-03T17:05:17.645Z,31.12
2022-08-03T17:08:26.449Z,31.11
2022-08-03T17:11:33.052Z,31.09
2022-08-03T17:14:36.051Z,30.92
2022-08-03T17:17:53.853Z,30.85
2022-08-03T17:20:58.534Z,30.79
2022-08-03T17:24:04.681Z,30.62
2022-08-03T17:28:41.655Z,30.53
2022-08-03T17:31:00.039Z,30.31
2022-08-03T17:34:04.561Z,30.28
2022-08-03T17:37:49.782Z,30.06
2022-08-03T17:40:34.574Z,29.95
2022-08-03T17:44:13.421Z,29.97
2022-08-03T17:47:04.577Z,29.86
2022-08-03T17:50:09.788Z,29.85
2022-08-03T17:53:31.458Z,29.68
2022-08-03T17:57:26.390Z,29.70
2022-08-03T18:00:52.244Z,29.63
2022-08-03T18:04:02.906Z,29.43
2022-08-03T18:07:18.801Z,29.50
2022-08-03T18:10:24.278Z,29.35
2022-08-03T18:13:31.010Z,29.29
2022-08-03T18:16:56.414Z,29.34
2022-08-03T18:20:02.712Z,29.15
2022-08-03T18:23:09.123Z,29.12
2022-08-03T18:26:12.207Z,29.06
2022-08-03T18:29:15.778Z,29.10
2022-08-03T18:32:18.818Z,29.00
2022-08-03T18:35:24.707Z,29.01
2022-08-03T18:38:30.462Z,28.96
2022-08-03T18:41:35.357Z,28.89
2022-08-03T18:44:53.987Z,28.82
2022-08-03T18:48:27.110Z,28.71
2022-08-03T18:51:42.933Z,28.64
2022-08-03T18:55:14.094Z,28.59
2022-08-03T18:58:46.114Z,28.50
2022-08-03T19:02:00.419Z,28.34
2022-08-03T19:05:08.977Z,28.38
2022-08-03T19:08:28.611Z,28.22
2022-08-03T19:12:12.553Z,28.16
2022-08-03T19:15:13.031Z,28.18
2022-08-03T19:18:17.877Z,28.15
2022-08-03T19:21:21.857Z,28.01
2022-08-03T19:24:26.513Z,28.02
2022-08-03T19:27:31.224Z,27.98
2022-08-03T19:30:38.868Z,27.96
2022-08-03T19:33:55.945Z,27.93
2022-08-03T19:37:01.032Z,27.90
2022-08-03T19:40:10.890Z,27.88
2022-08-03T19:43:52.994Z,27.75
2022-08-03T19:47:09.705Z,27.82
2022-08-03T19:50:14.278Z,27.79
2022-08-03T19:53:19.800Z,27.78
2022-08-03T19:56:59.748Z,27.77
2022-08-03T20:00:09.288Z,27.74
2022-08-03T20:03:21.719Z,27.71
2022-08-03T20:06:26.416Z,27.67
2022-08-03T20:09:30.314Z,27.60
2022-08-03T20:12:38.745Z,27.61
2022-08-03T20:15:45.667Z,27.58
2022-08-03T20:18:50.705Z,27.53
2022-08-03T20:21:56.175Z,27.48
2022-08-03T20:25:06.899Z,27.00
2022-08-03T20:28:14.912Z,27.11
2022-08-03T20:31:23.844Z,27.31
2022-08-03T20:34:43.820Z,27.26
2022-08-03T20:37:46.224Z,27.11
2022-08-03T20:40:51.954Z,27.17
2022-08-03T20:44:00.917Z,27.13
2022-08-03T20:47:08.413Z,27.09
2022-08-03T20:50:13.071Z,27.04
2022-08-03T20:53:49.222Z,27.01
2022-08-03T20:57:00.593Z,26.98
2022-08-03T21:00:21.936Z,26.95
2022-08-03T21:07:04.049Z,26.40
2022-08-03T21:10:28.430Z,26.67
2022-08-03T21:13:07.968Z,26.89
2022-08-03T21:13:46.680Z,26.65
2022-08-03T21:17:14.037Z,26.68
2022-08-03T21:20:32.105Z,26.63
2022-08-03T21:23:48.806Z,26.58
2022-08-03T21:26:56.382Z,26.54
2022-08-03T21:30:05.570Z,26.50
2022-08-03T21:33:13.337Z,26.43
2022-08-03T21:36:16.173Z,26.37
2022-08-03T21:39:18.974Z,25.87
2022-08-03T21:42:23.949Z,26.23
2022-08-03T21:45:26.698Z,26.22
2022-08-03T21:48:36.119Z,26.18
2022-08-03T21:51:39.345Z,26.13
2022-08-03T21:54:44.896Z,26.10
2022-08-03T21:57:52.293Z,26.07
2022-08-03T22:00:55.453Z,26.05
2022-08-03T22:03:58.562Z,26.03
2022-08-03T22:07:01.206Z,26.03
2022-08-03T22:10:06.042Z,26.02
2022-08-03T22:13:08.328Z,26.00
2022-08-03T22:16:13.951Z,25.98
2022-08-03T22:19:16.283Z,25.97
2022-08-03T22:22:28.473Z,25.94
2022-08-03T22:25:35.158Z,25.91
2022-08-03T22:28:38.411Z,25.87
2022-08-03T22:31:58.439Z,25.81
2022-08-03T22:35:04.156Z,25.79
2022-08-03T22:38:08.579Z,25.74
2022-08-03T22:41:11.509Z,25.73
2022-08-03T22:44:14.008Z,25.70
2022-08-03T22:47:22.405Z,25.69
2022-08-03T22:50:32.344Z,25.65
2022-08-03T22:53:36.556Z,25.64
2022-08-03T22:56:38.971Z,25.62
2022-08-03T22:59:42.103Z,25.60
2022-08-03T23:02:48.293Z,25.57
2022-08-03T23:06:00.518Z,25.52
2022-08-03T23:09:11.220Z,25.38
2022-08-03T23:12:19.298Z,25.48
2022-08-03T23:15:26.153Z,25.47
2022-08-03T23:18:33.017Z,25.44
2022-08-03T23:21:53.466Z,25.34
2022-08-03T23:25:05.130Z,25.32
2022-08-03T23:28:09.393Z,25.30
2022-08-03T23:31:14.812Z,25.28
2022-08-03T23:34:36.974Z,25.19
2022-08-03T23:38:04.643Z,25.14
2022-08-03T23:41:06.328Z,25.09
2022-08-03T23:44:15.897Z,25.04
2022-08-03T23:47:18.619Z,24.88
2022-08-03T23:50:21.837Z,24.97
2022-08-03T23:53:40.697Z,24.92
2022-08-03T23:56:58.232Z,24.91
